createdAt,value
2018-02-14T00:02:26.348Z,72.07
2018-02-14T00:04:57.708Z,71.68
2018-02-14T00:07:28.544Z,73.78
2018-02-14T00:09:59.609Z,73.33
2018-02-14T00:12:30.874Z,72.68
2018-02-14T00:15:02.329Z,72.83
2018-02-14T00:17:33.499Z,72.17
2018-02-14T00:20:04.537Z,73.22
2018-02-14T00:22:35.758Z,73.10
2018-02-14T00:25:06.584Z,72.60
2018-02-14T00:27:38.045Z,74.09
2018-02-14T00:30:10.069Z,73.16
2018-02-14T00:32:41.400Z,72.86
2018-02-14T00:35:12.749Z,72.70
2018-02-14T00:37:44.628Z,72.38
2018-02-14T00:40:16.450Z,71.98
2018-02-14T00:42:48.004Z,72.63
2018-02-14T00:45:18.889Z,72.14
2018-02-14T00:47:50.009Z,73.28
2018-02-14T00:50:21.587Z,72.70
2018-02-14T00:52:53.096Z,73.08
2018-02-14T00:55:24.462Z,72.82
2018-02-14T00:57:56.038Z,73.71
2018-02-14T01:00:27.296Z,73.33
2018-02-14T01:02:58.695Z,73.81
2018-02-14T01:05:29.883Z,73.48
2018-02-14T01:08:01.497Z,73.70
2018-02-14T01:10:33.564Z,73.21
2018-02-14T01:13:04.976Z,73.17
2018-02-14T01:15:38.584Z,73.51
2018-02-14T01:18:10.150Z,73.22
2018-02-14T01:20:44.992Z,73.26
2018-02-14T01:23:16.399Z,73.26
2018-02-14T01:25:47.812Z,72.55
2018-02-14T01:28:20.672Z,75.67
2018-02-14T01:30:52.121Z,74.30
2018-02-14T01:33:23.704Z,73.76
2018-02-14T01:35:54.553Z,73.36
2018-02-14T01:38:26.080Z,74.56
2018-02-14T01:40:57.626Z,77.84
2018-02-14T01:43:29.048Z,77.60
2018-02-14T01:46:00.247Z,75.63
2018-02-14T01:48:31.827Z,79.86
2018-02-14T01:51:03.390Z,74.76
2018-02-14T01:53:34.977Z,76.33
2018-02-14T01:56:06.354Z,74.78
2018-02-14T01:58:38.322Z,74.15
2018-02-14T02:01:10.084Z,74.45
2018-02-14T02:03:41.650Z,74.71
2018-02-14T02:06:13.196Z,74.85
2018-02-14T02:08:44.870Z,75.01
2018-02-14T02:11:16.277Z,74.77
2018-02-14T02:13:47.788Z,74.26
2018-02-14T02:16:19.300Z,74.85
2018-02-14T02:18:50.573Z,73.95
2018-02-14T02:21:22.516Z,74.56
2018-02-14T02:23:53.639Z,74.19
2018-02-14T02:26:25.244Z,74.25
2018-02-14T02:28:56.649Z,73.63
2018-02-14T02:31:27.597Z,74.47
2018-02-14T02:33:58.892Z,75.09
2018-02-14T02:36:30.795Z,74.82
2018-02-14T02:39:02.509Z,74.85
2018-02-14T02:41:34.213Z,74.36
2018-02-14T02:44:06.308Z,74.75
2018-02-14T02:46:38.032Z,75.12
2018-02-14T02:49:09.149Z,74.91
2018-02-14T02:51:41.148Z,74.53
2018-02-14T02:54:12.924Z,74.25
2018-02-14T02:56:44.565Z,74.16
2018-02-14T02:59:16.295Z,74.30
2018-02-14T03:01:48.316Z,73.80
2018-02-14T03:04:19.751Z,74.97
2018-02-14T03:06:51.426Z,74.25
2018-02-14T03:09:23.184Z,75.14
2018-02-14T03:11:54.739Z,74.54
2018-02-14T03:14:26.179Z,75.71
2018-02-14T03:16:57.818Z,75.56
2018-02-14T03:19:29.337Z,75.62
2018-02-14T03:22:01.235Z,74.87
2018-02-14T03:24:32.829Z,74.76
2018-02-14T03:27:04.840Z,74.83
2018-02-14T03:29:36.634Z,75.06
2018-02-14T03:32:08.793Z,74.95
2018-02-14T03:34:40.672Z,75.75
2018-02-14T03:37:12.279Z,75.10
2018-02-14T03:39:43.904Z,75.39
2018-02-14T03:42:15.699Z,75.67
2018-02-14T03:44:47.366Z,75.56
2018-02-14T03:47:18.992Z,75.91
2018-02-14T03:49:50.988Z,75.31
2018-02-14T03:52:22.644Z,75.90
2018-02-14T03:54:54.460Z,75.84
2018-02-14T03:57:26.485Z,76.19
2018-02-14T03:59:58.323Z,75.97
2018-02-14T04:02:30.107Z,75.81
2018-02-14T04:05:02.184Z,75.81
2018-02-14T04:07:34.008Z,75.69
2018-02-14T04:10:05.628Z,75.65
2018-02-14T04:12:37.232Z,75.80
2018-02-14T04:15:08.544Z,76.44
2018-02-14T04:17:39.987Z,75.52
2018-02-14T04:20:11.451Z,75.76
2018-02-14T04:22:43.236Z,76.33
2018-02-14T04:25:15.044Z,75.27
2018-02-14T04:27:46.983Z,75.86
2018-02-14T04:30:18.979Z,75.45
2018-02-14T04:32:50.698Z,76.24
2018-02-14T04:35:22.800Z,75.38
2018-02-14T04:37:54.436Z,75.28
2018-02-14T04:40:26.060Z,75.13
2018-02-14T04:42:58.300Z,76.44
2018-02-14T04:45:29.884Z,76.32
2018-02-14T04:48:01.753Z,75.96
2018-02-14T04:50:33.275Z,75.44
2018-02-14T04:53:04.753Z,75.07
2018-02-14T04:55:36.187Z,75.36
2018-02-14T04:58:07.856Z,76.04
2018-02-14T05:00:39.581Z,76.09
2018-02-14T05:03:11.658Z,76.80
2018-02-14T05:05:43.363Z,76.31
2018-02-14T05:08:15.199Z,75.84
2018-02-14T05:10:47.156Z,78.05
2018-02-14T05:13:19.048Z,77.73
2018-02-14T05:15:50.680Z,78.90
2018-02-14T05:18:22.283Z,77.77
2018-02-14T05:20:53.938Z,77.19
2018-02-14T05:23:26.551Z,77.10
2018-02-14T05:25:58.532Z,76.46
2018-02-14T05:28:32.870Z,76.15
2018-02-14T05:31:08.412Z,75.83
2018-02-14T05:33:39.775Z,75.33
2018-02-14T05:36:11.471Z,75.40
2018-02-14T05:38:43.727Z,76.29
2018-02-14T05:41:15.340Z,76.42
2018-02-14T05:43:47.896Z,77.52
2018-02-14T05:46:19.651Z,76.50
2018-02-14T05:48:51.209Z,76.33
2018-02-14T05:51:22.849Z,74.85
2018-02-14T05:53:53.892Z,74.81
2018-02-14T05:56:25.577Z,75.84
2018-02-14T05:58:57.071Z,76.77
2018-02-14T06:01:30.143Z,76.26
2018-02-14T06:04:01.476Z,75.58
2018-02-14T06:06:35.001Z,74.84
2018-02-14T06:09:06.592Z,76.22
2018-02-14T06:11:39.691Z,76.13
2018-02-14T06:14:11.300Z,75.84
2018-02-14T06:16:43.501Z,76.29
2018-02-14T06:19:15.012Z,76.49
2018-02-14T06:21:46.091Z,76.32
2018-02-14T06:24:17.476Z,75.94
2018-02-14T06:26:48.600Z,76.22
2018-02-14T06:29:20.202Z,76.30
2018-02-14T06:31:51.855Z,76.66
2018-02-14T06:34:23.655Z,76.34
2018-02-14T06:36:55.164Z,76.49
2018-02-14T06:39:26.468Z,76.88
2018-02-14T06:41:57.581Z,77.10
2018-02-14T06:44:28.651Z,76.81
2018-02-14T06:46:59.788Z,77.40
2018-02-14T06:49:31.372Z,77.36
2018-02-14T06:52:02.743Z,77.68
2018-02-14T06:54:34.553Z,77.94
2018-02-14T06:57:06.265Z,77.94
2018-02-14T06:59:38.140Z,77.58
2018-02-14T07:02:09.872Z,78.07
2018-02-14T07:04:40.891Z,78.24
2018-02-14T07:07:12.016Z,77.68
2018-02-14T07:09:43.825Z,77.80
2018-02-14T07:12:15.467Z,78.28
2018-02-14T07:14:46.784Z,79.61
2018-02-14T07:17:17.897Z,79.39
2018-02-14T07:19:49.102Z,78.04
2018-02-14T07:22:20.748Z,78.47
2018-02-14T07:24:52.150Z,78.29
2018-02-14T07:27:23.576Z,78.46
2018-02-14T07:29:54.733Z,78.02
2018-02-14T07:32:25.796Z,78.31
2018-02-14T07:34:57.318Z,78.61
2018-02-14T07:37:28.443Z,78.39
2018-02-14T07:39:59.622Z,78.45
2018-02-14T07:42:31.541Z,78.29
2018-02-14T07:45:03.181Z,78.73
2018-02-14T07:47:35.602Z,79.48
2018-02-14T07:50:05.992Z,79.81
2018-02-14T07:52:38.092Z,79.02
2018-02-14T07:55:09.196Z,79.56
2018-02-14T07:57:40.292Z,81.25
2018-02-14T08:00:11.620Z,83.17
2018-02-14T08:02:43.040Z,82.36
2018-02-14T08:05:14.056Z,79.57
2018-02-14T08:07:45.441Z,79.47
2018-02-14T08:10:16.855Z,80.43
2018-02-14T08:12:48.147Z,83.56
2018-02-14T08:15:19.484Z,83.18
2018-02-14T08:17:50.328Z,83.07
2018-02-14T08:20:21.068Z,81.98
2018-02-14T08:22:52.492Z,81.37
2018-02-14T08:25:23.896Z,80.65
2018-02-14T08:27:55.084Z,80.50
2018-02-14T08:30:26.587Z,79.48
2018-02-14T08:32:57.639Z,79.80
2018-02-14T08:35:28.846Z,79.07
2018-02-14T08:37:59.657Z,78.69
2018-02-14T08:40:30.684Z,77.45
2018-02-14T08:43:01.494Z,76.76
2018-02-14T08:45:32.265Z,76.94
2018-02-14T08:48:03.320Z,76.12
2018-02-14T08:50:34.084Z,77.10
2018-02-14T08:53:04.942Z,79.13
2018-02-14T08:55:35.961Z,80.19
2018-02-14T08:58:07.500Z,78.38
2018-02-14T09:00:39.091Z,80.66
2018-02-14T09:03:10.012Z,79.15
2018-02-14T09:05:40.766Z,79.11
2018-02-14T09:08:11.988Z,79.51
2018-02-14T09:10:43.423Z,79.37
2018-02-14T09:13:14.646Z,79.92
2018-02-14T09:15:46.211Z,78.80
2018-02-14T09:18:17.068Z,79.91
2018-02-14T09:20:47.840Z,79.24
2018-02-14T09:23:18.923Z,78.52
2018-02-14T09:25:50.192Z,77.24
2018-02-14T09:28:21.027Z,74.88
2018-02-14T09:30:52.117Z,75.85
2018-02-14T09:33:22.911Z,72.27
2018-02-14T09:35:54.405Z,73.77
2018-02-14T09:38:25.798Z,75.07
2018-02-14T09:40:57.092Z,76.43
2018-02-14T09:43:28.617Z,72.86
2018-02-14T09:45:59.660Z,72.72
2018-02-14T09:48:30.431Z,73.48
2018-02-14T09:51:01.472Z,71.77
2018-02-14T09:53:32.342Z,72.98
2018-02-14T09:56:03.160Z,73.32
2018-02-14T09:58:34.188Z,73.02
2018-02-14T10:01:05.002Z,74.21
2018-02-14T10:03:35.837Z,76.46
2018-02-14T10:06:07.168Z,76.61
2018-02-14T10:08:37.939Z,76.12
2018-02-14T10:11:08.705Z,75.77
2018-02-14T10:13:40.008Z,74.55
2018-02-14T10:16:10.703Z,75.17
2018-02-14T10:18:41.548Z,75.24
2018-02-14T10:21:12.575Z,72.82
2018-02-14T10:23:43.363Z,73.46
2018-02-14T10:26:14.408Z,72.10
2018-02-14T10:28:45.198Z,70.32
2018-02-14T10:31:16.043Z,69.62
2018-02-14T10:33:47.203Z,72.73
2018-02-14T10:36:17.984Z,72.92
2018-02-14T10:38:49.233Z,72.90
2018-02-14T10:41:20.352Z,72.69
2018-02-14T10:43:51.150Z,68.35
2018-02-14T10:46:22.447Z,71.51
2018-02-14T10:48:53.423Z,69.59
2018-02-14T10:51:24.195Z,69.31
2018-02-14T10:53:54.943Z,70.36
2018-02-14T10:56:26.115Z,70.95
2018-02-14T10:58:57.466Z,69.06
2018-02-14T11:01:32.336Z,67.88
2018-02-14T11:04:06.978Z,65.09
2018-02-14T11:06:38.408Z,62.87
2018-02-14T11:09:09.144Z,62.82
2018-02-14T11:11:40.504Z,64.97
2018-02-14T11:14:11.904Z,65.60
2018-02-14T11:16:42.728Z,67.24
2018-02-14T11:19:13.548Z,67.48
2018-02-14T11:21:44.672Z,66.92
2018-02-14T11:24:15.709Z,69.55
2018-02-14T11:26:46.475Z,66.41
2018-02-14T11:29:17.532Z,64.36
2018-02-14T11:31:48.327Z,64.50
2018-02-14T11:34:19.116Z,65.17
2018-02-14T11:36:50.281Z,65.07
2018-02-14T11:39:21.062Z,64.47
2018-02-14T11:41:52.184Z,64.58
2018-02-14T11:44:23.004Z,65.50
2018-02-14T11:46:54.105Z,64.54
2018-02-14T11:49:25.160Z,66.34
2018-02-14T11:51:55.955Z,68.06
2018-02-14T11:54:26.752Z,68.76
2018-02-14T11:56:57.795Z,69.17
2018-02-14T11:59:28.539Z,66.18
2018-02-14T12:01:59.284Z,66.09
2018-02-14T12:04:30.164Z,67.34
2018-02-14T12:07:00.923Z,64.26
2018-02-14T12:09:32.796Z,64.91
2018-02-14T12:12:03.916Z,66.16
2018-02-14T12:14:34.724Z,64.48
2018-02-14T12:17:05.856Z,62.31
2018-02-14T12:19:36.616Z,64.00
2018-02-14T12:22:08.284Z,62.33
2018-02-14T12:24:39.969Z,59.66
2018-02-14T12:27:10.978Z,59.52
2018-02-14T12:29:41.713Z,56.69
2018-02-14T12:32:12.738Z,53.63
2018-02-14T12:34:43.577Z,51.62
2018-02-14T12:37:14.348Z,49.96
2018-02-14T12:39:45.407Z,50.55
2018-02-14T12:42:16.268Z,48.63
2018-02-14T12:44:47.085Z,49.66
2018-02-14T12:47:17.864Z,47.43
2018-02-14T12:49:48.662Z,47.88
2018-02-14T12:52:19.852Z,47.52
2018-02-14T12:54:50.615Z,49.24
2018-02-14T12:57:21.372Z,48.40
2018-02-14T12:59:52.276Z,47.55
2018-02-14T13:02:23.020Z,47.36
2018-02-14T13:04:53.767Z,47.80
2018-02-14T13:07:25.444Z,47.89
2018-02-14T13:09:57.368Z,47.53
2018-02-14T13:12:29.729Z,47.84
2018-02-14T13:15:02.225Z,47.74
2018-02-14T13:17:33.033Z,46.49
2018-02-14T13:20:03.850Z,46.18
2018-02-14T13:22:35.144Z,46.41
2018-02-14T13:25:06.055Z,47.46
2018-02-14T13:27:36.831Z,46.72
2018-02-14T13:30:08.028Z,46.82
2018-02-14T13:32:38.812Z,48.35
2018-02-14T13:35:09.717Z,46.82
2018-02-14T13:37:43.440Z,46.88
2018-02-14T13:40:14.263Z,46.93
2018-02-14T13:42:45.403Z,46.74
2018-02-14T13:45:16.270Z,46.30
2018-02-14T13:47:47.395Z,46.63
2018-02-14T13:50:18.536Z,47.68
2018-02-14T13:52:49.316Z,48.12
2018-02-14T13:55:20.092Z,48.86
2018-02-14T13:57:51.607Z,48.57
2018-02-14T14:00:22.467Z,47.52
2018-02-14T14:02:53.236Z,48.35
2018-02-14T14:05:24.420Z,47.97
2018-02-14T14:07:55.232Z,46.98
2018-02-14T14:10:26.344Z,48.23
2018-02-14T14:12:57.832Z,48.78
2018-02-14T14:15:28.599Z,48.58
2018-02-14T14:17:59.632Z,47.45
2018-02-14T14:23:05.220Z,47.29
2018-02-14T14:25:36.336Z,47.41
2018-02-14T14:28:09.228Z,47.75
2018-02-14T14:30:40.338Z,47.93
2018-02-14T14:33:11.360Z,49.09
2018-02-14T14:35:42.209Z,49.81
2018-02-14T14:38:13.264Z,52.11
2018-02-14T14:40:44.091Z,52.40
2018-02-14T14:43:14.819Z,52.24
2018-02-14T14:45:45.910Z,51.32
2018-02-14T14:48:16.876Z,52.23
2018-02-14T14:50:47.735Z,52.79
2018-02-14T14:53:19.064Z,53.18
2018-02-14T14:55:49.832Z,53.18
2018-02-14T14:58:20.812Z,53.06
2018-02-14T15:00:51.591Z,53.49
2018-02-14T15:03:22.395Z,53.41
2018-02-14T15:05:53.294Z,53.82
2018-02-14T15:08:24.087Z,52.91
2018-02-14T15:10:54.970Z,54.25
2018-02-14T15:13:26.037Z,54.29
2018-02-14T15:15:56.844Z,54.08
2018-02-14T15:18:28.044Z,54.74
2018-02-14T15:20:59.152Z,54.55
2018-02-14T15:23:29.920Z,54.10
2018-02-14T15:26:00.696Z,55.15
2018-02-14T15:28:31.799Z,54.52
2018-02-14T15:31:02.757Z,54.27
2018-02-14T15:33:34.000Z,54.04
2018-02-14T15:36:05.558Z,54.54
2018-02-14T15:38:36.750Z,54.99
2018-02-14T15:41:07.628Z,55.34
2018-02-14T15:43:38.328Z,55.50
2018-02-14T15:46:10.344Z,55.29
2018-02-14T15:48:41.151Z,54.84
2018-02-14T15:51:11.913Z,55.01
2018-02-14T15:53:42.934Z,54.52
2018-02-14T15:56:13.624Z,54.65
2018-02-14T15:58:44.844Z,55.55
2018-02-14T16:01:15.984Z,55.79
2018-02-14T16:03:46.795Z,55.69
2018-02-14T16:06:17.840Z,55.69
2018-02-14T16:08:48.639Z,56.46
2018-02-14T16:11:19.504Z,57.11
2018-02-14T16:13:50.485Z,56.33
2018-02-14T16:16:21.248Z,56.61
2018-02-14T16:18:52.081Z,56.67
2018-02-14T16:21:23.169Z,56.86
2018-02-14T16:23:53.976Z,56.92
2018-02-14T16:26:24.775Z,57.27
2018-02-14T16:28:55.824Z,57.19
2018-02-14T16:31:26.620Z,58.65
2018-02-14T16:33:57.546Z,59.62
2018-02-14T16:36:28.493Z,58.79
2018-02-14T16:38:59.744Z,59.02
2018-02-14T16:41:30.778Z,58.68
2018-02-14T16:44:01.604Z,58.00
2018-02-14T16:46:32.389Z,58.78
2018-02-14T16:49:03.228Z,58.54
2018-02-14T16:51:34.016Z,59.07
2018-02-14T16:54:05.192Z,59.06
2018-02-14T16:56:36.325Z,58.35
2018-02-14T16:59:07.124Z,58.94
2018-02-14T17:01:38.142Z,59.21
2018-02-14T17:04:09.157Z,59.18
2018-02-14T17:07:11.467Z,58.90
2018-02-14T17:09:42.319Z,57.80
2018-02-14T17:12:13.233Z,58.46
2018-02-14T17:14:44.328Z,60.12
2018-02-14T17:17:15.210Z,60.00
2018-02-14T17:19:46.014Z,59.62
2018-02-14T17:22:17.191Z,60.26
2018-02-14T17:24:48.074Z,59.60
2018-02-14T17:27:18.820Z,59.79
2018-02-14T17:29:49.904Z,60.27
2018-02-14T17:32:20.644Z,60.32
2018-02-14T17:34:51.456Z,60.41
2018-02-14T17:38:24.879Z,61.30
2018-02-14T17:40:55.792Z,61.11
2018-02-14T17:43:26.875Z,60.82
2018-02-14T17:45:57.696Z,61.09
2018-02-14T17:48:28.565Z,61.56
2018-02-14T17:50:59.705Z,61.76
2018-02-14T17:53:30.416Z,61.62
2018-02-14T17:56:01.174Z,61.50
2018-02-14T17:58:32.248Z,62.40
2018-02-14T18:01:03.162Z,61.84
2018-02-14T18:03:33.939Z,61.83
2018-02-14T18:06:04.941Z,62.77
2018-02-14T18:08:35.807Z,62.32
2018-02-14T18:11:06.659Z,63.47
2018-02-14T18:13:37.825Z,62.53
2018-02-14T18:16:12.933Z,63.51
2018-02-14T18:18:44.096Z,63.42
2018-02-14T18:21:14.901Z,62.41
2018-02-14T18:23:45.749Z,63.60
2018-02-14T18:26:16.827Z,63.45
2018-02-14T18:28:47.856Z,64.03
2018-02-14T18:31:18.772Z,63.99
2018-02-14T18:33:49.875Z,64.13
2018-02-14T18:36:20.876Z,65.28
2018-02-14T18:38:52.036Z,64.94
2018-02-14T18:41:22.921Z,64.41
2018-02-14T18:43:53.737Z,65.04
2018-02-14T18:46:24.927Z,64.79
2018-02-14T18:48:55.805Z,63.41
2018-02-14T18:51:26.613Z,64.06
2018-02-14T18:53:57.721Z,64.26
2018-02-14T18:56:28.605Z,63.94
2018-02-14T18:58:59.493Z,64.32
2018-02-14T19:01:30.623Z,64.68
2018-02-14T19:04:01.508Z,64.91
2018-02-14T19:06:32.443Z,64.94
2018-02-14T19:09:03.809Z,65.68
2018-02-14T19:11:34.804Z,66.51
2018-02-14T19:16:41.050Z,68.38
2018-02-14T19:19:11.964Z,67.43
2018-02-14T19:21:43.148Z,68.21
2018-02-14T19:24:13.938Z,68.50
2018-02-14T19:26:44.787Z,67.90
2018-02-14T19:29:15.879Z,67.41
2018-02-14T19:31:46.683Z,67.61
2018-02-14T19:34:18.735Z,68.53
2018-02-14T19:36:49.513Z,69.13
2018-02-14T19:39:20.419Z,68.90
2018-02-14T19:41:51.519Z,69.11
2018-02-14T19:44:22.911Z,68.51
2018-02-14T19:46:54.668Z,69.74
2018-02-14T19:49:25.840Z,69.86
2018-02-14T19:51:56.732Z,70.10
2018-02-14T19:54:28.136Z,70.37
2018-02-14T19:57:01.628Z,70.26
2018-02-14T19:59:32.555Z,70.44
2018-02-14T20:02:04.027Z,70.81
2018-02-14T20:04:34.918Z,69.95
2018-02-14T20:07:05.723Z,70.66
2018-02-14T20:09:36.918Z,69.75
2018-02-14T20:12:07.856Z,70.57
2018-02-14T20:14:38.851Z,70.87
2018-02-14T20:17:10.179Z,70.71
2018-02-14T20:19:40.984Z,70.70
2018-02-14T20:22:12.567Z,70.44
2018-02-14T20:24:43.585Z,70.33
2018-02-14T20:27:14.855Z,70.37
2018-02-14T20:29:46.052Z,70.24
2018-02-14T20:32:17.552Z,70.27
2018-02-14T20:34:48.604Z,70.22
2018-02-14T20:37:19.780Z,70.30
2018-02-14T20:39:51.016Z,70.34
2018-02-14T20:42:21.882Z,69.71
2018-02-14T20:44:53.020Z,70.63
2018-02-14T20:47:23.907Z,70.31
2018-02-14T20:49:55.301Z,70.24
2018-02-14T20:52:26.944Z,70.28
2018-02-14T20:54:58.008Z,69.85
2018-02-14T20:57:29.112Z,70.50
2018-02-14T20:59:59.872Z,69.69
2018-02-14T21:02:31.155Z,70.25
2018-02-14T21:05:02.301Z,70.32
2018-02-14T21:07:33.196Z,69.89
2018-02-14T21:10:04.055Z,70.38
2018-02-14T21:12:35.561Z,70.22
2018-02-14T21:15:06.353Z,70.05
2018-02-14T21:17:37.372Z,70.64
2018-02-14T21:20:08.597Z,70.62
2018-02-14T21:22:39.564Z,70.91
2018-02-14T21:25:11.541Z,71.01
2018-02-14T21:27:42.301Z,71.47
2018-02-14T21:30:13.728Z,71.68
2018-02-14T21:32:45.200Z,72.27
2018-02-14T21:35:16.048Z,72.50
2018-02-14T21:37:46.860Z,72.51
2018-02-14T21:40:17.876Z,72.21
2018-02-14T21:42:48.652Z,72.60
2018-02-14T21:45:19.332Z,72.88
2018-02-14T21:47:50.060Z,72.31
2018-02-14T21:50:20.846Z,72.25
2018-02-14T21:52:52.355Z,72.01
2018-02-14T21:55:23.510Z,72.27
2018-02-14T21:57:54.323Z,72.13
2018-02-14T22:00:25.857Z,72.36
2018-02-14T22:02:57.172Z,72.35
2018-02-14T22:05:28.016Z,72.07
2018-02-14T22:07:58.851Z,72.00
2018-02-14T22:10:30.383Z,70.68
2018-02-14T22:13:02.958Z,71.16
2018-02-14T22:15:34.032Z,72.01
2018-02-14T22:18:04.795Z,71.44
2018-02-14T22:20:35.594Z,72.33
2018-02-14T22:23:06.844Z,71.76
2018-02-14T22:25:37.663Z,71.00
2018-02-14T22:28:08.535Z,71.48
2018-02-14T22:30:39.545Z,70.92
2018-02-14T22:33:10.468Z,72.12
2018-02-14T22:35:41.438Z,72.49
2018-02-14T22:38:12.679Z,71.83
2018-02-14T22:40:43.463Z,72.74
2018-02-14T22:43:14.272Z,73.71
2018-02-14T22:45:45.815Z,72.28
2018-02-14T22:48:16.662Z,71.54
2018-02-14T22:50:47.751Z,72.67
2018-02-14T22:53:18.517Z,72.84
2018-02-14T22:55:49.279Z,72.65
2018-02-14T22:58:20.143Z,72.47
2018-02-14T23:00:50.931Z,72.14
2018-02-14T23:03:24.404Z,71.25
2018-02-14T23:05:55.752Z,72.62
2018-02-14T23:08:27.228Z,73.64
2018-02-14T23:10:58.307Z,74.21
2018-02-14T23:13:29.148Z,73.87
2018-02-14T23:16:00.058Z,75.58
2018-02-14T23:18:31.719Z,76.60
2018-02-14T23:21:02.473Z,75.69
2018-02-14T23:23:33.323Z,73.27
2018-02-14T23:26:04.502Z,73.12
2018-02-14T23:28:35.278Z,71.79
2018-02-14T23:31:06.087Z,72.67
2018-02-14T23:33:37.170Z,71.57
2018-02-14T23:36:08.063Z,71.80
2018-02-14T23:38:39.412Z,71.65
2018-02-14T23:41:10.488Z,71.87
2018-02-14T23:43:41.536Z,71.74
2018-02-14T23:46:12.592Z,72.57
2018-02-14T23:48:44.106Z,72.42
2018-02-14T23:51:14.910Z,71.32
2018-02-14T23:53:45.907Z,71.04
2018-02-14T23:56:17.090Z,71.33
2018-02-14T23:58:48.283Z,71.68
